Main page
METAR-TAF:

METAR-TAF

Airports :

Kempegowda International Airport

Bangalore, India

latitude: 13-11-56N, longitude: 077-42-20E, elevation: 915 m

Current weather observation

The report was made 34 minutes ago, at 20:30 UTC
Wind 1 kt from variable directions
Temperature 18°C
Humidity 59%
Pressure 1014 hPa
Visibility: 6000 m

METAR: VOBL 222030Z VRB01KT 6000 NSC 18/10 Q1014 NOSIG

Time: 02:34 (21:04 UTC)

Forecast

The report was made 1 hour and 4 minutes ago, at 20:00 UTC
Forecast valid from 22 at 21 UTC to 23 at 06 UTC
Wind 2 kt from variable directions
Visibility: 3000 m
Scattered clouds at a height of 800 ft
mist
Temporary
from 23 at 00 UTC to 23 at 03 UTC
Visibility: 0800 m
Broken clouds at a height of 500 ft
fog
Becoming
from 23 at 04 UTC to 23 at 05 UTC
Wind 5 kt from the Northwest
Visibility: 6000 m

TAF: VOBL 222000Z 2221/2306 VRB02KT 3000 BR SCT008 TEMPO 2300/2303 0800 FG BKN005 BECMG 2304/2305 32005KT 6000 NSC

Weather observations and forecasts of more than 4000 airports (METAR and TAF reports).

The available stations are represented by yellow and red dots on the map.

Hover mouse over dot to see the name of the station.

Then click to see weather observations and forecasts.

To change the map : click on the green buttons with a black cross to zoom in, on the green button with a dash to zoom out, or on the green arrows for adjacent maps.


METAR-TAF: